sensor_id;sensor_type;location;lat;lon;timestamp;pressure;altitude;pressure_sealevel;temperature;humidity
29239;BME280;16267;48.194;11.546;2024-02-14T00:01:40;96413.09;;;3.38;93.38
29239;BME280;16267;48.194;11.546;2024-02-14T00:04:06;96412.31;;;3.38;93.75
29239;BME280;16267;48.194;11.546;2024-02-14T00:06:36;96414.56;;;3.35;93.77
29239;BME280;16267;48.194;11.546;2024-02-14T00:09:02;96413.75;;;3.35;93.62
29239;BME280;16267;48.194;11.546;2024-02-14T00:11:28;96414.13;;;3.33;93.39
29239;BME280;16267;48.194;11.546;2024-02-14T00:13:54;96425.81;;;3.32;93.85
29239;BME280;16267;48.194;11.546;2024-02-14T00:16:22;96419.75;;;3.32;93.82
29239;BME280;16267;48.194;11.546;2024-02-14T00:18:47;96424.66;;;3.30;94.06
29239;BME280;16267;48.194;11.546;2024-02-14T00:21:13;96425.75;;;3.29;94.05
29239;BME280;16267;48.194;11.546;2024-02-14T00:23:39;96423.84;;;3.29;93.95
29239;BME280;16267;48.194;11.546;2024-02-14T00:26:05;96421.56;;;3.28;93.84
29239;BME280;16267;48.194;11.546;2024-02-14T00:28:30;96416.94;;;3.25;94.41
29239;BME280;16267;48.194;11.546;2024-02-14T00:30:56;96423.00;;;3.25;94.34
29239;BME280;16267;48.194;11.546;2024-02-14T00:33:22;96417.69;;;3.25;94.52
29239;BME280;16267;48.194;11.546;2024-02-14T00:35:48;96419.16;;;3.23;95.15
29239;BME280;16267;48.194;11.546;2024-02-14T00:38:13;96416.50;;;3.23;95.30
29239;BME280;16267;48.194;11.546;2024-02-14T00:40:39;96426.69;;;3.21;95.60
29239;BME280;16267;48.194;11.546;2024-02-14T00:43:05;96417.28;;;3.23;95.72
29239;BME280;16267;48.194;11.546;2024-02-14T00:45:30;96426.00;;;3.24;95.54
29239;BME280;16267;48.194;11.546;2024-02-14T00:47:56;96427.13;;;3.23;96.00
29239;BME280;16267;48.194;11.546;2024-02-14T00:50:22;96426.09;;;3.27;96.52
29239;BME280;16267;48.194;11.546;2024-02-14T00:52:48;96427.31;;;3.30;96.45
29239;BME280;16267;48.194;11.546;2024-02-14T00:55:13;96424.72;;;3.33;96.32
29239;BME280;16267;48.194;11.546;2024-02-14T00:57:39;96426.38;;;3.38;96.27
29239;BME280;16267;48.194;11.546;2024-02-14T01:00:06;96425.25;;;3.39;96.15
29239;BME280;16267;48.194;11.546;2024-02-14T01:02:32;96417.03;;;3.44;96.05
29239;BME280;16267;48.194;11.546;2024-02-14T01:04:58;96425.06;;;3.48;96.20
29239;BME280;16267;48.194;11.546;2024-02-14T01:07:24;96420.03;;;3.43;97.11
29239;BME280;16267;48.194;11.546;2024-02-14T01:09:50;96437.50;;;3.44;97.38
29239;BME280;16267;48.194;11.546;2024-02-14T01:12:16;96436.13;;;3.50;97.05
29239;BME280;16267;48.194;11.546;2024-02-14T01:14:42;96432.78;;;3.53;96.48
29239;BME280;16267;48.194;11.546;2024-02-14T01:17:08;96434.31;;;3.54;96.55
29239;BME280;16267;48.194;11.546;2024-02-14T01:19:33;96430.97;;;3.57;96.34
29239;BME280;16267;48.194;11.546;2024-02-14T01:21:59;96431.41;;;3.59;96.23
29239;BME280;16267;48.194;11.546;2024-02-14T01:24:25;96431.06;;;3.61;96.27
29239;BME280;16267;48.194;11.546;2024-02-14T01:26:55;96430.72;;;3.62;96.32
29239;BME280;16267;48.194;11.546;2024-02-14T01:29:21;96428.06;;;3.62;96.24
29239;BME280;16267;48.194;11.546;2024-02-14T01:31:48;96428.50;;;3.64;95.91
29239;BME280;16267;48.194;11.546;2024-02-14T01:34:15;96437.22;;;3.65;95.99
29239;BME280;16267;48.194;11.546;2024-02-14T01:36:41;96430.78;;;3.66;95.91
29239;BME280;16267;48.194;11.546;2024-02-14T01:39:07;96430.78;;;3.66;95.57
29239;BME280;16267;48.194;11.546;2024-02-14T01:41:47;96432.34;;;3.67;95.47
29239;BME280;16267;48.194;11.546;2024-02-14T01:44:15;96433.88;;;3.68;95.74
29239;BME280;16267;48.194;11.546;2024-02-14T01:46:42;96427.03;;;3.67;96.35
29239;BME280;16267;48.194;11.546;2024-02-14T01:49:09;96427.81;;;3.67;95.82
29239;BME280;16267;48.194;11.546;2024-02-14T01:51:38;96432.34;;;3.67;95.45
29239;BME280;16267;48.194;11.546;2024-02-14T01:54:05;96427.03;;;3.67;95.80
29239;BME280;16267;48.194;11.546;2024-02-14T01:56:32;96430.47;;;3.67;95.80
29239;BME280;16267;48.194;11.546;2024-02-14T01:58:59;96435.44;;;3.69;95.55
29239;BME280;16267;48.194;11.546;2024-02-14T02:01:26;96430.78;;;3.66;96.39
29239;BME280;16267;48.194;11.546;2024-02-14T02:03:53;96433.88;;;3.68;95.90
29239;BME280;16267;48.194;11.546;2024-02-14T02:06:19;96439.94;;;3.68;95.64
29239;BME280;16267;48.194;11.546;2024-02-14T02:08:45;96442.97;;;3.67;95.74
29239;BME280;16267;48.194;11.546;2024-02-14T02:11:11;96435.00;;;3.67;95.52
29239;BME280;16267;48.194;11.546;2024-02-14T02:13:37;96438.09;;;3.69;95.48
29239;BME280;16267;48.194;11.546;2024-02-14T02:16:05;96431.66;;;3.70;95.71
29239;BME280;16267;48.194;11.546;2024-02-14T02:18:34;96432.41;;;3.70;95.83
29239;BME280;16267;48.194;11.546;2024-02-14T02:21:00;96442.59;;;3.68;96.33
29239;BME280;16267;48.194;11.546;2024-02-14T02:23:29;96433.19;;;3.71;96.34
29239;BME280;16267;48.194;11.546;2024-02-14T02:25:56;96434.56;;;3.65;96.00
29239;BME280;16267;48.194;11.546;2024-02-14T02:28:22;96437.59;;;3.63;96.21
29239;BME280;16267;48.194;11.546;2024-02-14T02:30:48;96438.69;;;3.62;95.82
29239;BME280;16267;48.194;11.546;2024-02-14T02:33:13;96439.53;;;3.66;96.22
29239;BME280;16267;48.194;11.546;2024-02-14T02:35:42;96436.53;;;3.68;96.45
29239;BME280;16267;48.194;11.546;2024-02-14T02:38:11;96433.13;;;3.67;95.51
29239;BME280;16267;48.194;11.546;2024-02-14T02:40:37;96433.13;;;3.67;95.16
29239;BME280;16267;48.194;11.546;2024-02-14T02:43:03;96431.16;;;3.64;95.04
29239;BME280;16267;48.194;11.546;2024-02-14T02:45:29;96433.13;;;3.67;95.23
29239;BME280;16267;48.194;11.546;2024-02-14T02:47:55;96432.09;;;3.72;95.26
29239;BME280;16267;48.194;11.546;2024-02-14T02:50:21;96429.06;;;3.73;95.18
29239;BME280;16267;48.194;11.546;2024-02-14T02:52:47;96436.78;;;3.78;94.53
29239;BME280;16267;48.194;11.546;2024-02-14T02:55:13;96434.91;;;3.79;94.35
29239;BME280;16267;48.194;11.546;2024-02-14T02:57:43;96428.91;;;3.82;94.16
29239;BME280;16267;48.194;11.546;2024-02-14T03:00:10;96436.97;;;3.86;94.09
29239;BME280;16267;48.194;11.546;2024-02-14T03:02:39;96433.19;;;3.87;93.84
29239;BME280;16267;48.194;11.546;2024-02-14T03:05:07;96436.84;;;3.82;93.42
29239;BME280;16267;48.194;11.546;2024-02-14T03:07:34;96436.09;;;3.82;94.13
29239;BME280;16267;48.194;11.546;2024-02-14T03:10:00;96439.19;;;3.84;94.01
29239;BME280;16267;48.194;11.546;2024-02-14T03:12:25;96435.75;;;3.83;93.91
29239;BME280;16267;48.194;11.546;2024-02-14T03:14:54;96441.25;;;3.74;93.62
29239;BME280;16267;48.194;11.546;2024-02-14T03:17:20;96441.06;;;3.83;94.15
29239;BME280;16267;48.194;11.546;2024-02-14T03:19:45;96439.13;;;3.80;93.41
29239;BME280;16267;48.194;11.546;2024-02-14T03:22:12;96445.34;;;3.88;93.97
29239;BME280;16267;48.194;11.546;2024-02-14T03:24:38;96446.97;;;3.92;93.75
29239;BME280;16267;48.194;11.546;2024-02-14T03:27:04;96438.31;;;3.95;93.39
29239;BME280;16267;48.194;11.546;2024-02-14T03:29:30;96442.59;;;4.00;93.15
29239;BME280;16267;48.194;11.546;2024-02-14T03:31:56;96436.59;;;4.03;92.57
29239;BME280;16267;48.194;11.546;2024-02-14T03:34:24;96440.44;;;4.06;92.39
29239;BME280;16267;48.194;11.546;2024-02-14T03:36:50;96442.41;;;4.09;92.35
29239;BME280;16267;48.194;11.546;2024-02-14T03:39:16;96443.84;;;4.06;91.92
29239;BME280;16267;48.194;11.546;2024-02-14T03:41:42;96441.53;;;4.05;91.52
29239;BME280;16267;48.194;11.546;2024-02-14T03:44:08;96442.72;;;4.07;92.29
29239;BME280;16267;48.194;11.546;2024-02-14T03:46:34;96450.03;;;4.10;92.09
29239;BME280;16267;48.194;11.546;2024-02-14T03:49:01;96443.94;;;4.10;91.55
29239;BME280;16267;48.194;11.546;2024-02-14T03:51:27;96443.22;;;4.13;91.30
29239;BME280;16267;48.194;11.546;2024-02-14T03:53:52;96446.69;;;4.13;91.22
29239;BME280;16267;48.194;11.546;2024-02-14T03:56:18;96445.88;;;4.13;90.80
29239;BME280;16267;48.194;11.546;2024-02-14T03:58:44;96439.56;;;4.01;90.72
29239;BME280;16267;48.194;11.546;2024-02-14T04:01:12;96445.75;;;4.06;91.44
29239;BME280;16267;48.194;11.546;2024-02-14T04:03:39;96443.09;;;4.06;90.46
29239;BME280;16267;48.194;11.546;2024-02-14T04:06:05;96438.13;;;4.04;89.88
29239;BME280;16267;48.194;11.546;2024-02-14T04:08:31;96442.59;;;4.00;89.92
29239;BME280;16267;48.194;11.546;2024-02-14T04:10:56;96438.31;;;3.95;89.88
29239;BME280;16267;48.194;11.546;2024-02-14T04:13:22;96435.66;;;3.95;90.18
29239;BME280;16267;48.194;11.546;2024-02-14T04:15:48;96436.59;;;3.87;89.62
29239;BME280;16267;48.194;11.546;2024-02-14T04:18:14;96439.69;;;3.89;89.82
29239;BME280;16267;48.194;11.546;2024-02-14T04:20:41;96434.44;;;3.93;89.93
29239;BME280;16267;48.194;11.546;2024-02-14T04:23:08;96435.56;;;3.92;89.08
29239;BME280;16267;48.194;11.546;2024-02-14T04:25:35;96434.03;;;3.91;88.68
29239;BME280;16267;48.194;11.546;2024-02-14T04:28:03;96434.44;;;3.93;88.92
29239;BME280;16267;48.194;11.546;2024-02-14T04:30:29;96441.31;;;3.94;88.74
29239;BME280;16267;48.194;11.546;2024-02-14T04:32:55;96448.16;;;3.95;88.68
29239;BME280;16267;48.194;11.546;2024-02-14T04:35:20;96443.28;;;3.97;88.15
29239;BME280;16267;48.194;11.546;2024-02-14T04:37:46;96439.50;;;3.98;88.24
29239;BME280;16267;48.194;11.546;2024-02-14T04:40:13;96442.16;;;3.98;88.43
29239;BME280;16267;48.194;11.546;2024-02-14T04:42:40;96441.47;;;4.01;88.68
29239;BME280;16267;48.194;11.546;2024-02-14T04:45:07;96441.47;;;4.01;88.74
29239;BME280;16267;48.194;11.546;2024-02-14T04:47:33;96444.56;;;4.03;88.71
29239;BME280;16267;48.194;11.546;2024-02-14T04:49:58;96452.16;;;4.05;88.54
29239;BME280;16267;48.194;11.546;2024-02-14T04:52:25;96444.56;;;4.03;88.71
29239;BME280;16267;48.194;11.546;2024-02-14T04:54:51;96437.34;;;4.03;89.14
29239;BME280;16267;48.194;11.546;2024-02-14T04:57:17;96443.84;;;4.06;89.18
29239;BME280;16267;48.194;11.546;2024-02-14T04:59:44;96438.22;;;4.08;89.20
29239;BME280;16267;48.194;11.546;2024-02-14T05:02:10;96440.38;;;4.02;88.71
29239;BME280;16267;48.194;11.546;2024-02-14T05:04:36;96438.53;;;4.06;89.77
29239;BME280;16267;48.194;11.546;2024-02-14T05:07:04;96440.69;;;4.00;88.69
29239;BME280;16267;48.194;11.546;2024-02-14T05:09:30;96434.69;;;4.03;89.24
29239;BME280;16267;48.194;11.546;2024-02-14T05:11:56;96435.06;;;4.02;88.28
29239;BME280;16267;48.194;11.546;2024-02-14T05:14:22;96439.16;;;3.99;88.43
29239;BME280;16267;48.194;11.546;2024-02-14T05:16:48;96430.84;;;4.01;88.81
29239;BME280;16267;48.194;11.546;2024-02-14T05:19:14;96437.09;;;3.93;87.08
29239;BME280;16267;48.194;11.546;2024-02-14T05:21:40;96430.41;;;3.99;88.48
29239;BME280;16267;48.194;11.546;2024-02-14T05:24:06;96431.72;;;3.89;87.19
29239;BME280;16267;48.194;11.546;2024-02-14T05:26:33;96425.72;;;3.92;87.35
29239;BME280;16267;48.194;11.546;2024-02-14T05:28:58;96430.78;;;3.97;87.93
29239;BME280;16267;48.194;11.546;2024-02-14T05:31:28;96429.56;;;3.95;87.15
29239;BME280;16267;48.194;11.546;2024-02-14T05:34:07;96437.97;;;3.97;86.95
29239;BME280;16267;48.194;11.546;2024-02-14T05:36:33;96431.53;;;3.98;86.72
29239;BME280;16267;48.194;11.546;2024-02-14T05:38:59;96425.78;;;3.96;86.51
29239;BME280;16267;48.194;11.546;2024-02-14T05:41:24;96434.03;;;3.91;86.73
29239;BME280;16267;48.194;11.546;2024-02-14T05:43:51;96439.44;;;3.94;87.24
29239;BME280;16267;48.194;11.546;2024-02-14T05:46:16;96439.44;;;3.94;87.15
29239;BME280;16267;48.194;11.546;2024-02-14T05:48:42;96437.97;;;3.97;87.84
29239;BME280;16267;48.194;11.546;2024-02-14T05:51:08;96440.88;;;3.92;87.20
29239;BME280;16267;48.194;11.546;2024-02-14T05:53:33;96440.53;;;3.93;86.86
29239;BME280;16267;48.194;11.546;2024-02-14T05:55:59;96446.78;;;4.01;86.58
29239;BME280;16267;48.194;11.546;2024-02-14T05:58:25;96447.22;;;4.03;86.66
29239;BME280;16267;48.194;11.546;2024-02-14T06:00:52;96448.47;;;4.09;86.55
29239;BME280;16267;48.194;11.546;2024-02-14T06:03:18;96449.59;;;4.08;85.90
29239;BME280;16267;48.194;11.546;2024-02-14T06:05:44;96454.56;;;4.10;85.56
29239;BME280;16267;48.194;11.546;2024-02-14T06:08:09;96453.47;;;4.11;85.23
29239;BME280;16267;48.194;11.546;2024-02-14T06:10:35;96456.88;;;4.11;85.85
29239;BME280;16267;48.194;11.546;2024-02-14T06:13:04;96448.47;;;4.09;85.56
29239;BME280;16267;48.194;11.546;2024-02-14T06:15:30;96453.03;;;4.09;85.68
29239;BME280;16267;48.194;11.546;2024-02-14T06:17:55;96455.69;;;4.09;85.37
29239;BME280;16267;48.194;11.546;2024-02-14T06:20:21;96455.25;;;4.07;85.90
29239;BME280;16267;48.194;11.546;2024-02-14T06:22:48;96455.41;;;4.14;86.95
29239;BME280;16267;48.194;11.546;2024-02-14T06:25:13;96464.16;;;4.14;85.53
29239;BME280;16267;48.194;11.546;2024-02-14T06:27:39;96464.66;;;4.20;85.81
29239;BME280;16267;48.194;11.546;2024-02-14T06:30:06;96465.78;;;4.19;85.87
29239;BME280;16267;48.194;11.546;2024-02-14T06:32:32;96465.66;;;4.31;86.71
29239;BME280;16267;48.194;11.546;2024-02-14T06:34:58;96468.88;;;4.40;87.05
29239;BME280;16267;48.194;11.546;2024-02-14T06:37:24;96479.59;;;4.44;86.37
29239;BME280;16267;48.194;11.546;2024-02-14T06:39:49;96474.44;;;4.51;86.59
29239;BME280;16267;48.194;11.546;2024-02-14T06:42:17;96478.06;;;4.43;85.58
29239;BME280;16267;48.194;11.546;2024-02-14T06:44:43;96472.81;;;4.46;86.49
29239;BME280;16267;48.194;11.546;2024-02-14T06:47:09;96465.13;;;4.41;85.79
29239;BME280;16267;48.194;11.546;2024-02-14T06:49:34;96461.50;;;4.50;87.22
29239;BME280;16267;48.194;11.546;2024-02-14T06:52:00;96461.84;;;4.48;86.06
29239;BME280;16267;48.194;11.546;2024-02-14T06:54:26;96462.31;;;4.54;86.56
29239;BME280;16267;48.194;11.546;2024-02-14T06:56:52;96461.22;;;4.55;86.44
29239;BME280;16267;48.194;11.546;2024-02-14T06:59:18;96468.41;;;4.54;86.68
29239;BME280;16267;48.194;11.546;2024-02-14T07:01:43;96470.72;;;4.56;86.06
29239;BME280;16267;48.194;11.546;2024-02-14T07:04:09;96463.25;;;4.61;86.71
29239;BME280;16267;48.194;11.546;2024-02-14T07:06:35;96472.16;;;4.69;86.92
29239;BME280;16267;48.194;11.546;2024-02-14T07:09:01;96477.59;;;4.76;86.38
29239;BME280;16267;48.194;11.546;2024-02-14T07:11:27;96482.03;;;4.68;85.31
29239;BME280;16267;48.194;11.546;2024-02-14T07:13:52;96486.00;;;4.78;86.96
29239;BME280;16267;48.194;11.546;2024-02-14T07:16:18;96489.56;;;4.86;87.61
29239;BME280;16267;48.194;11.546;2024-02-14T07:18:44;96497.34;;;4.95;87.01
29239;BME280;16267;48.194;11.546;2024-02-14T07:21:10;96496.00;;;5.04;86.42
29239;BME280;16267;48.194;11.546;2024-02-14T07:23:35;96503.00;;;5.12;87.24
29239;BME280;16267;48.194;11.546;2024-02-14T07:26:01;96504.28;;;5.19;87.26
29239;BME280;16267;48.194;11.546;2024-02-14T07:28:27;96502.09;;;5.24;86.06
29239;BME280;16267;48.194;11.546;2024-02-14T07:30:53;96501.03;;;5.29;85.59
29239;BME280;16267;48.194;11.546;2024-02-14T07:33:18;96496.50;;;5.29;84.00
29239;BME280;16267;48.194;11.546;2024-02-14T07:35:44;96509.84;;;5.33;83.39
29239;BME280;16267;48.194;11.546;2024-02-14T07:38:10;96503.41;;;5.34;83.05
29239;BME280;16267;48.194;11.546;2024-02-14T07:40:36;96511.09;;;5.39;83.13
29239;BME280;16267;48.194;11.546;2024-02-14T07:43:01;96515.28;;;5.40;81.22
29239;BME280;16267;48.194;11.546;2024-02-14T07:45:27;96516.47;;;5.43;81.73
29239;BME280;16267;48.194;11.546;2024-02-14T07:47:53;96523.41;;;5.47;80.86
29239;BME280;16267;48.194;11.546;2024-02-14T07:50:19;96521.94;;;5.50;80.58
29239;BME280;16267;48.194;11.546;2024-02-14T07:52:46;96523.25;;;5.59;82.78
29239;BME280;16267;48.194;11.546;2024-02-14T07:55:12;96529.69;;;5.58;80.93
29239;BME280;16267;48.194;11.546;2024-02-14T07:57:42;96518.75;;;5.64;80.43
29239;BME280;16267;48.194;11.546;2024-02-14T08:00:08;96526.34;;;5.62;79.28
29239;BME280;16267;48.194;11.546;2024-02-14T08:02:35;96517.28;;;5.66;81.05
29239;BME280;16267;48.194;11.546;2024-02-14T08:05:02;96519.66;;;5.71;80.88
29239;BME280;16267;48.194;11.546;2024-02-14T08:07:27;96513.38;;;5.83;81.83
29239;BME280;16267;48.194;11.546;2024-02-14T08:09:54;96520.25;;;5.84;79.55
29239;BME280;16267;48.194;11.546;2024-02-14T08:12:20;96519.94;;;5.89;79.51
29239;BME280;16267;48.194;11.546;2024-02-14T08:14:47;96522.34;;;5.94;79.26
29239;BME280;16267;48.194;11.546;2024-02-14T08:17:13;96522.78;;;5.96;79.97
29239;BME280;16267;48.194;11.546;2024-02-14T08:19:39;96533.94;;;6.06;79.16
29239;BME280;16267;48.194;11.546;2024-02-14T08:22:05;96528.31;;;6.11;79.38
29239;BME280;16267;48.194;11.546;2024-02-14T08:24:31;96534.47;;;6.15;79.18
29239;BME280;16267;48.194;11.546;2024-02-14T08:26:57;96536.25;;;6.07;77.71
29239;BME280;16267;48.194;11.546;2024-02-14T08:29:23;96536.41;;;6.18;78.83
29239;BME280;16267;48.194;11.546;2024-02-14T08:31:49;96537.50;;;6.13;77.46
29239;BME280;16267;48.194;11.546;2024-02-14T08:34:15;96534.88;;;6.17;77.92
29239;BME280;16267;48.194;11.546;2024-02-14T08:36:42;96533.41;;;6.19;78.59
29239;BME280;16267;48.194;11.546;2024-02-14T08:39:08;96538.44;;;6.24;77.24
29239;BME280;16267;48.194;11.546;2024-02-14T08:41:38;96535.16;;;6.35;78.29
29239;BME280;16267;48.194;11.546;2024-02-14T08:44:04;96525.44;;;6.46;78.57
29239;BME280;16267;48.194;11.546;2024-02-14T08:46:31;96521.28;;;6.48;76.93
29239;BME280;16267;48.194;11.546;2024-02-14T08:48:56;96524.84;;;6.60;77.54
29239;BME280;16267;48.194;11.546;2024-02-14T08:51:22;96519.63;;;6.70;77.49
29239;BME280;16267;48.194;11.546;2024-02-14T08:53:49;96516.72;;;6.79;76.16
29239;BME280;16267;48.194;11.546;2024-02-14T08:56:20;96519.50;;;6.90;76.57
29239;BME280;16267;48.194;11.546;2024-02-14T08:58:46;96518.56;;;7.05;75.49
29239;BME280;16267;48.194;11.546;2024-02-14T09:01:12;96524.00;;;7.12;74.88
29239;BME280;16267;48.194;11.546;2024-02-14T09:03:38;96525.25;;;7.26;74.71
29239;BME280;16267;48.194;11.546;2024-02-14T09:06:04;96524.22;;;7.34;74.18
29239;BME280;16267;48.194;11.546;2024-02-14T09:08:30;96518.66;;;7.50;73.64
29239;BME280;16267;48.194;11.546;2024-02-14T09:10:57;96526.81;;;7.64;73.09
29239;BME280;16267;48.194;11.546;2024-02-14T09:13:24;96524.25;;;7.75;71.96
29239;BME280;16267;48.194;11.546;2024-02-14T09:15:50;96518.59;;;7.83;72.54
29239;BME280;16267;48.194;11.546;2024-02-14T09:18:18;96521.00;;;7.96;70.50
29239;BME280;16267;48.194;11.546;2024-02-14T09:20:44;96517.25;;;8.04;69.57
29239;BME280;16267;48.194;11.546;2024-02-14T09:23:13;96517.72;;;8.17;72.91
29239;BME280;16267;48.194;11.546;2024-02-14T09:25:45;96511.28;;;8.25;70.88
29239;BME280;16267;48.194;11.546;2024-02-14T09:28:11;96519.38;;;8.36;69.42
29239;BME280;16267;48.194;11.546;2024-02-14T09:30:38;96522.53;;;8.45;71.52
29239;BME280;16267;48.194;11.546;2024-02-14T09:33:04;96518.75;;;8.53;69.74
29239;BME280;16267;48.194;11.546;2024-02-14T09:35:30;96523.34;;;8.56;68.01
29239;BME280;16267;48.194;11.546;2024-02-14T09:37:56;96522.66;;;8.63;66.80
29239;BME280;16267;48.194;11.546;2024-02-14T09:40:22;96519.63;;;8.71;67.09
29239;BME280;16267;48.194;11.546;2024-02-14T09:43:03;96525.41;;;8.77;62.62
29239;BME280;16267;48.194;11.546;2024-02-14T09:45:30;96523.13;;;8.83;62.53
29239;BME280;16267;48.194;11.546;2024-02-14T09:47:59;96518.19;;;8.92;65.11
29239;BME280;16267;48.194;11.546;2024-02-14T09:50:27;96520.91;;;8.99;63.96
29239;BME280;16267;48.194;11.546;2024-02-14T09:52:56;96522.47;;;9.07;63.39
29239;BME280;16267;48.194;11.546;2024-02-14T09:55:23;96527.09;;;9.10;61.36
29239;BME280;16267;48.194;11.546;2024-02-14T09:57:50;96520.59;;;9.19;60.76
29239;BME280;16267;48.194;11.546;2024-02-14T10:00:17;96518.72;;;9.30;62.49
29239;BME280;16267;48.194;11.546;2024-02-14T10:02:43;96517.22;;;9.36;61.86
29239;BME280;16267;48.194;11.546;2024-02-14T10:05:09;96517.25;;;9.40;60.34
29239;BME280;16267;48.194;11.546;2024-02-14T10:07:43;96514.56;;;9.43;59.92
29239;BME280;16267;48.194;11.546;2024-02-14T10:10:10;96516.91;;;9.66;60.72
29239;BME280;16267;48.194;11.546;2024-02-14T10:12:37;96506.59;;;9.82;61.55
29239;BME280;16267;48.194;11.546;2024-02-14T10:15:04;96503.91;;;10.11;62.00
29239;BME280;16267;48.194;11.546;2024-02-14T10:17:33;96505.44;;;10.19;62.40
29239;BME280;16267;48.194;11.546;2024-02-14T10:20:01;96504.69;;;10.40;58.91
29239;BME280;16267;48.194;11.546;2024-02-14T10:22:38;96500.44;;;10.57;60.89
29239;BME280;16267;48.194;11.546;2024-02-14T10:25:05;96480.09;;;10.70;59.81
29239;BME280;16267;48.194;11.546;2024-02-14T10:27:39;96491.97;;;10.69;56.71
29239;BME280;16267;48.194;11.546;2024-02-14T10:30:09;96491.94;;;10.80;56.00
29239;BME280;16267;48.194;11.546;2024-02-14T10:32:37;96488.44;;;10.90;55.83
29239;BME280;16267;48.194;11.546;2024-02-14T10:35:07;96495.25;;;11.13;55.54
29239;BME280;16267;48.194;11.546;2024-02-14T10:37:35;96497.81;;;11.38;53.85
29239;BME280;16267;48.194;11.546;2024-02-14T10:40:04;96490.81;;;11.58;53.76
29239;BME280;16267;48.194;11.546;2024-02-14T10:42:32;96492.38;;;11.56;55.26
29239;BME280;16267;48.194;11.546;2024-02-14T10:44:59;96499.47;;;11.80;55.72
29239;BME280;16267;48.194;11.546;2024-02-14T10:47:32;96494.44;;;11.93;54.59
29239;BME280;16267;48.194;11.546;2024-02-14T10:50:07;96494.47;;;11.90;54.17
29239;BME280;16267;48.194;11.546;2024-02-14T10:52:36;96497.53;;;11.84;55.26
29239;BME280;16267;48.194;11.546;2024-02-14T10:55:04;96489.09;;;11.82;53.13
29239;BME280;16267;48.194;11.546;2024-02-14T10:57:31;96490.28;;;11.81;53.82
29239;BME280;16267;48.194;11.546;2024-02-14T11:00:01;96493.72;;;11.82;54.83
29239;BME280;16267;48.194;11.546;2024-02-14T11:02:27;96491.41;;;11.80;54.01
29239;BME280;16267;48.194;11.546;2024-02-14T11:04:58;96483.75;;;11.86;54.26
29239;BME280;16267;48.194;11.546;2024-02-14T11:07:24;96482.97;;;11.86;54.11
29239;BME280;16267;48.194;11.546;2024-02-14T11:10:04;96488.66;;;11.95;55.46
29239;BME280;16267;48.194;11.546;2024-02-14T11:12:37;96476.47;;;12.66;54.71
29239;BME280;16267;48.194;11.546;2024-02-14T11:15:20;96488.28;;;13.10;53.99
29239;BME280;16267;48.194;11.546;2024-02-14T11:17:47;96474.84;;;13.06;53.51
29239;BME280;16267;48.194;11.546;2024-02-14T11:20:30;96471.09;;;13.00;54.04
29239;BME280;16267;48.194;11.546;2024-02-14T11:23:00;96469.94;;;13.59;50.97
29239;BME280;16267;48.194;11.546;2024-02-14T11:25:31;96467.84;;;13.70;52.83
29239;BME280;16267;48.194;11.546;2024-02-14T11:28:16;96457.81;;;13.71;51.45
29239;BME280;16267;48.194;11.546;2024-02-14T11:30:44;96462.97;;;13.61;50.83
29239;BME280;16267;48.194;11.546;2024-02-14T11:33:21;96464.31;;;14.00;50.53
29239;BME280;16267;48.194;11.546;2024-02-14T11:35:50;96452.03;;;13.96;51.74
29239;BME280;16267;48.194;11.546;2024-02-14T11:38:17;96455.97;;;13.91;52.72
29239;BME280;16267;48.194;11.546;2024-02-14T11:40:44;96459.47;;;13.88;51.38
29239;BME280;16267;48.194;11.546;2024-02-14T11:43:15;96450.31;;;13.82;51.93
29239;BME280;16267;48.194;11.546;2024-02-14T11:45:43;96446.56;;;13.76;52.18
29239;BME280;16267;48.194;11.546;2024-02-14T11:48:14;96454.28;;;13.50;51.92
29239;BME280;16267;48.194;11.546;2024-02-14T11:50:45;96448.97;;;13.43;52.71
29239;BME280;16267;48.194;11.546;2024-02-14T11:53:12;96452.56;;;13.36;53.40
29239;BME280;16267;48.194;11.546;2024-02-14T11:55:39;96439.47;;;13.35;53.69
29239;BME280;16267;48.194;11.546;2024-02-14T11:58:10;96437.38;;;13.19;53.68
29239;BME280;16267;48.194;11.546;2024-02-14T12:00:41;96438.81;;;13.24;54.10
29239;BME280;16267;48.194;11.546;2024-02-14T12:03:11;96434.31;;;13.17;53.97
29239;BME280;16267;48.194;11.546;2024-02-14T12:05:38;96436.88;;;13.28;55.61
29239;BME280;16267;48.194;11.546;2024-02-14T12:08:07;96437.22;;;13.30;55.03
29239;BME280;16267;48.194;11.546;2024-02-14T12:10:35;96436.47;;;13.29;55.87
29239;BME280;16267;48.194;11.546;2024-02-14T12:13:10;96435.94;;;13.38;55.64
29239;BME280;16267;48.194;11.546;2024-02-14T12:15:41;96435.56;;;13.39;55.38
29239;BME280;16267;48.194;11.546;2024-02-14T12:18:12;96441.72;;;13.40;55.71
29239;BME280;16267;48.194;11.546;2024-02-14T12:20:39;96442.44;;;13.44;57.04
29239;BME280;16267;48.194;11.546;2024-02-14T12:23:05;96444.09;;;13.34;54.67
29239;BME280;16267;48.194;11.546;2024-02-14T12:25:32;96442.13;;;13.38;55.63
29239;BME280;16267;48.194;11.546;2024-02-14T12:27:58;96438.31;;;13.36;55.46
29239;BME280;16267;48.194;11.546;2024-02-14T12:30:51;96445.63;;;13.35;54.68
29239;BME280;16267;48.194;11.546;2024-02-14T12:33:22;96439.38;;;13.42;55.20
29239;BME280;16267;48.194;11.546;2024-02-14T12:35:56;96438.84;;;13.51;55.96
29239;BME280;16267;48.194;11.546;2024-02-14T12:38:23;96436.84;;;13.55;56.02
29239;BME280;16267;48.194;11.546;2024-02-14T12:40:49;96442.69;;;13.53;56.67
29239;BME280;16267;48.194;11.546;2024-02-14T12:43:16;96432.19;;;13.59;55.65
29239;BME280;16267;48.194;11.546;2024-02-14T12:45:43;96433.41;;;13.54;55.35
29239;BME280;16267;48.194;11.546;2024-02-14T12:48:10;96439.47;;;13.62;56.25
29239;BME280;16267;48.194;11.546;2024-02-14T12:50:38;96440.53;;;13.68;56.86
29239;BME280;16267;48.194;11.546;2024-02-14T12:53:07;96435.53;;;13.67;58.78
29239;BME280;16267;48.194;11.546;2024-02-14T12:55:33;96435.28;;;13.57;62.84
29239;BME280;16267;48.194;11.546;2024-02-14T12:57:59;96444.31;;;13.47;65.50